Time;durP1;ratioP1;P1;durP2;ratioP2;P2;SDS_P1;SDS_P2;PMS_P1;PMS_P2;Temp;Humidity;BMP_temperature;BMP_pressure;BME280_temperature;BME280_humidity;BME280_pressure;Samples;Min_cycle;Max_cycle;Signal;HPM_P1;HPM_P2
2023/09/24 00:02:00;;;;;;;3.40;1.50;;;;;;;;;;5036829;28;20392;-69
2023/09/24 00:04:25;;;;;;;3.23;1.07;;;;;;;;;;5035217;28;20017;-69
2023/09/24 00:06:50;;;;;;;1.98;1.38;;;;;;;;;;5036959;28;20048;-69
2023/09/24 00:09:16;;;;;;;8.73;1.37;;;;;;;;;;5036843;28;20021;-69
2023/09/24 00:11:41;;;;;;;1.80;1.02;;;;;;;;;;5036731;28;20014;-69
2023/09/24 00:14:06;;;;;;;6.03;1.40;;;;;;;;;;5044108;28;20102;-69
2023/09/24 00:16:32;;;;;;;4.20;1.00;;;;;;;;;;5056661;28;20096;-69
2023/09/24 00:18:57;;;;;;;3.57;1.20;;;;;;;;;;5056624;28;20094;-69
2023/09/24 00:21:22;;;;;;;1.83;1.23;;;;;;;;;;5037029;28;20025;-69
2023/09/24 00:23:47;;;;;;;2.20;1.53;;;;;;;;;;5036420;28;20267;-69
2023/09/24 00:26:13;;;;;;;4.10;1.13;;;;;;;;;;5049542;28;20029;-69
2023/09/24 00:28:38;;;;;;;3.08;1.17;;;;;;;;;;5056474;28;20327;-69
2023/09/24 00:31:03;;;;;;;1.50;0.95;;;;;;;;;;5056311;28;20457;-69
2023/09/24 00:33:29;;;;;;;2.70;1.07;;;;;;;;;;5056198;28;20128;-69
2023/09/24 00:35:57;;;;;;;2.22;1.10;;;;;;;;;;5056551;28;20021;-69
2023/09/24 00:38:22;;;;;;;1.50;0.93;;;;;;;;;;5056466;28;20032;-69
2023/09/24 00:40:47;;;;;;;2.20;1.00;;;;;;;;;;5056236;28;20392;-69
2023/09/24 00:43:28;;;;;;;2.95;1.20;;;;;;;;;;5056119;28;20021;-69
2023/09/24 00:45:55;;;;;;;0.88;0.65;;;;;;;;;;5056144;28;20032;-69
2023/09/24 00:48:21;;;;;;;2.15;1.00;;;;;;;;;;5056075;28;20024;-69
2023/09/24 00:50:47;;;;;;;2.33;1.20;;;;;;;;;;5036594;28;20026;-69
2023/09/24 00:53:15;;;;;;;2.05;1.20;;;;;;;;;;5043301;28;20095;-69
2023/09/24 00:55:41;;;;;;;2.00;1.10;;;;;;;;;;5055959;28;20012;-69
2023/09/24 00:58:06;;;;;;;2.38;1.17;;;;;;;;;;5055933;28;20495;-69
2023/09/24 01:00:34;;;;;;;1.60;0.75;;;;;;;;;;5038139;28;20440;-69
2023/09/24 01:02:59;;;;;;;5.50;1.52;;;;;;;;;;5035753;28;20108;-69
2023/09/24 01:05:25;;;;;;;3.75;1.50;;;;;;;;;;5035532;28;20045;-69
2023/09/24 01:07:51;;;;;;;2.92;1.20;;;;;;;;;;5035777;28;20013;-69
2023/09/24 01:10:20;;;;;;;3.22;1.20;;;;;;;;;;5035720;28;20440;-69
2023/09/24 01:12:55;;;;;;;6.22;1.50;;;;;;;;;;5035703;28;20025;-69
2023/09/24 01:15:20;;;;;;;4.00;1.60;;;;;;;;;;5035694;28;20485;-69
2023/09/24 01:17:47;;;;;;;2.57;1.30;;;;;;;;;;5035325;28;20025;-69
2023/09/24 01:20:13;;;;;;;7.43;1.70;;;;;;;;;;5035489;28;20250;-69
2023/09/24 01:22:39;;;;;;;2.78;1.38;;;;;;;;;;5035647;28;20533;-69
2023/09/24 01:25:05;;;;;;;2.75;1.17;;;;;;;;;;5035439;28;20417;-69
2023/09/24 01:27:35;;;;;;;2.53;1.23;;;;;;;;;;5035383;28;20075;-69
2023/09/24 01:30:01;;;;;;;3.78;1.48;;;;;;;;;;5035262;28;20017;-69
2023/09/24 01:32:27;;;;;;;4.95;1.38;;;;;;;;;;5035233;28;20042;-69
2023/09/24 01:34:52;;;;;;;4.60;1.65;;;;;;;;;;5035615;28;20433;-69
2023/09/24 01:37:18;;;;;;;6.67;1.20;;;;;;;;;;5035208;28;20025;-69
2023/09/24 01:39:45;;;;;;;4.05;1.35;;;;;;;;;;5035217;28;20500;-69
2023/09/24 01:42:13;;;;;;;3.03;1.50;;;;;;;;;;5035024;28;20018;-69
2023/09/24 01:44:39;;;;;;;7.30;1.40;;;;;;;;;;5036404;28;20022;-69
2023/09/24 01:47:05;;;;;;;7.47;1.38;;;;;;;;;;5035027;28;20101;-69
2023/09/24 01:49:31;;;;;;;2.78;1.38;;;;;;;;;;5035009;28;20060;-69
2023/09/24 01:51:57;;;;;;;3.70;1.30;;;;;;;;;;5035035;28;20010;-69
2023/09/24 01:54:24;;;;;;;4.22;1.45;;;;;;;;;;5034917;28;20063;-69
2023/09/24 01:56:49;;;;;;;3.58;1.30;;;;;;;;;;5035349;28;20060;-69
2023/09/24 01:59:15;;;;;;;5.63;1.30;;;;;;;;;;5034817;28;20115;-69
2023/09/24 02:01:40;;;;;;;7.95;1.23;;;;;;;;;;5034703;28;20144;-69
2023/09/24 02:04:05;;;;;;;2.70;1.27;;;;;;;;;;5035736;28;20013;-69
2023/09/24 02:06:34;;;;;;;2.30;1.27;;;;;;;;;;5034564;28;20620;-69
2023/09/24 02:09:01;;;;;;;1.48;1.00;;;;;;;;;;5034560;28;20087;-69
2023/09/24 02:11:27;;;;;;;1.20;0.85;;;;;;;;;;5034497;28;20045;-69
2023/09/24 02:13:52;;;;;;;1.30;0.80;;;;;;;;;;5034702;28;20548;-68
2023/09/24 02:16:17;;;;;;;1.57;0.90;;;;;;;;;;5051411;28;20053;-69
2023/09/24 02:18:43;;;;;;;1.23;0.87;;;;;;;;;;5053101;28;20112;-69
2023/09/24 02:21:15;;;;;;;6.88;1.27;;;;;;;;;;5052689;28;20028;-69
2023/09/24 02:23:40;;;;;;;;;;;;;;;;;;5054054;28;20017;-69
2023/09/24 02:26:07;;;;;;;1.70;0.98;;;;;;;;;;5036585;28;19909;-69
2023/09/24 02:28:32;;;;;;;2.28;1.13;;;;;;;;;;5053532;28;20526;-69
2023/09/24 02:30:57;;;;;;;1.30;1.02;;;;;;;;;;5042836;28;20021;-69
2023/09/24 02:33:23;;;;;;;1.17;0.80;;;;;;;;;;5033994;28;20405;-69
2023/09/24 02:35:49;;;;;;;1.33;0.80;;;;;;;;;;5049920;28;20064;-69
2023/09/24 02:38:14;;;;;;;2.38;1.20;;;;;;;;;;5053413;28;20078;-69
2023/09/24 02:40:40;;;;;;;2.03;1.08;;;;;;;;;;5053346;28;20095;-69
2023/09/24 02:43:05;;;;;;;2.20;1.10;;;;;;;;;;5052037;28;20025;-69
2023/09/24 02:45:30;;;;;;;5.28;1.30;;;;;;;;;;5041435;28;20024;-69
2023/09/24 02:47:56;;;;;;;2.45;1.15;;;;;;;;;;5033811;28;20529;-69
2023/09/24 02:50:23;;;;;;;6.00;1.10;;;;;;;;;;5033766;28;20049;-69
2023/09/24 02:52:49;;;;;;;4.72;1.63;;;;;;;;;;5038283;28;20020;-69
2023/09/24 02:55:15;;;;;;;4.90;1.25;;;;;;;;;;5037964;28;20029;-69
2023/09/24 02:57:41;;;;;;;1.13;1.00;;;;;;;;;;5046006;28;20060;-69
2023/09/24 03:00:17;;;;;;;3.60;1.05;;;;;;;;;;5052338;28;20036;-69
2023/09/24 03:02:43;;;;;;;1.35;1.00;;;;;;;;;;5052845;28;20098;-69
2023/09/24 03:05:11;;;;;;;4.50;0.90;;;;;;;;;;5034536;28;20017;-69
2023/09/24 03:07:36;;;;;;;1.45;1.00;;;;;;;;;;5033463;28;20255;-69
2023/09/24 03:10:03;;;;;;;1.95;0.90;;;;;;;;;;5033370;28;20024;-69
2023/09/24 03:12:29;;;;;;;1.67;0.90;;;;;;;;;;5034497;28;20515;-69
2023/09/24 03:14:55;;;;;;;1.13;0.95;;;;;;;;;;5033703;28;20389;-69
2023/09/24 03:17:21;;;;;;;1.13;1.00;;;;;;;;;;5049521;28;20029;-69
2023/09/24 03:19:46;;;;;;;1.27;1.10;;;;;;;;;;5052343;28;20112;-69
2023/09/24 03:22:11;;;;;;;2.03;1.20;;;;;;;;;;5047042;28;20425;-69
2023/09/24 03:24:36;;;;;;;2.20;1.10;;;;;;;;;;5032049;28;20025;-69
2023/09/24 03:27:02;;;;;;;1.20;0.90;;;;;;;;;;5045875;28;20029;-69
2023/09/24 03:29:27;;;;;;;2.13;1.10;;;;;;;;;;5052415;28;20388;-69
2023/09/24 03:31:52;;;;;;;1.02;0.77;;;;;;;;;;5041374;28;20037;-69
2023/09/24 03:34:18;;;;;;;1.23;0.88;;;;;;;;;;5033210;28;20512;-69
2023/09/24 03:36:45;;;;;;;1.63;1.00;;;;;;;;;;5048086;28;20020;-69
2023/09/24 03:39:10;;;;;;;2.33;0.95;;;;;;;;;;5050171;28;20791;-69
2023/09/24 03:41:35;;;;;;;0.73;0.70;;;;;;;;;;5046575;28;20025;-69
2023/09/24 03:44:01;;;;;;;1.93;0.93;;;;;;;;;;5048030;28;20065;-69
2023/09/24 03:46:27;;;;;;;1.10;0.80;;;;;;;;;;5038312;28;20448;-69
2023/09/24 03:48:52;;;;;;;1.30;0.77;;;;;;;;;;5032016;28;20017;-69
2023/09/24 03:51:18;;;;;;;3.30;1.10;;;;;;;;;;5051025;28;20024;-69
2023/09/24 03:53:43;;;;;;;1.93;0.93;;;;;;;;;;5052998;28;20028;-69
2023/09/24 03:56:08;;;;;;;3.53;1.00;;;;;;;;;;5053032;28;20257;-69
2023/09/24 03:58:33;;;;;;;1.13;0.70;;;;;;;;;;5052957;28;20027;-69
2023/09/24 04:01:07;;;;;;;1.67;1.02;;;;;;;;;;5035035;28;20474;-69
2023/09/24 04:03:33;;;;;;;1.60;0.98;;;;;;;;;;5052830;28;20024;-69
2023/09/24 04:05:58;;;;;;;2.47;1.00;;;;;;;;;;5052893;28;20013;-69
2023/09/24 04:08:23;;;;;;;1.90;1.10;;;;;;;;;;5052815;28;20075;-69
2023/09/24 04:10:49;;;;;;;2.17;1.17;;;;;;;;;;5052866;28;20175;-69
2023/09/24 04:13:15;;;;;;;1.30;0.98;;;;;;;;;;5052822;28;20323;-69
2023/09/24 04:15:40;;;;;;;1.73;1.00;;;;;;;;;;5052494;28;20017;-69
2023/09/24 04:18:05;;;;;;;2.07;1.03;;;;;;;;;;5052733;28;20460;-69
2023/09/24 04:20:32;;;;;;;0.73;0.73;;;;;;;;;;5052736;28;20021;-69
2023/09/24 04:22:57;;;;;;;2.53;0.80;;;;;;;;;;5052331;28;20278;-69
2023/09/24 04:25:26;;;;;;;2.80;0.98;;;;;;;;;;5052825;28;20576;-69
2023/09/24 04:27:51;;;;;;;3.92;1.08;;;;;;;;;;5052603;28;20014;-69
2023/09/24 04:30:17;;;;;;;3.15;1.10;;;;;;;;;;5052800;28;20020;-69
2023/09/24 04:32:49;;;;;;;4.80;0.93;;;;;;;;;;5050302;28;20049;-69
2023/09/24 04:35:19;;;;;;;4.75;1.20;;;;;;;;;;5032753;28;20116;-69
2023/09/24 04:37:44;;;;;;;5.07;1.35;;;;;;;;;;5032727;28;20413;-69
2023/09/24 04:40:14;;;;;;;2.27;1.10;;;;;;;;;;5034967;28;20078;-69
2023/09/24 04:42:41;;;;;;;3.03;1.13;;;;;;;;;;5036332;28;20026;-69
2023/09/24 04:45:07;;;;;;;8.50;1.30;;;;;;;;;;5036488;28;20156;-69
2023/09/24 04:47:32;;;;;;;4.00;1.17;;;;;;;;;;5036158;28;20089;-69
2023/09/24 04:49:58;;;;;;;4.43;1.10;;;;;;;;;;5036105;28;20033;-69
2023/09/24 04:52:23;;;;;;;2.30;1.20;;;;;;;;;;5036119;28;20018;-69
2023/09/24 04:54:48;;;;;;;3.05;1.17;;;;;;;;;;5036046;28;20024;-69
2023/09/24 04:57:13;;;;;;;3.10;1.00;;;;;;;;;;5040866;28;20043;-69
2023/09/24 04:59:39;;;;;;;1.67;0.93;;;;;;;;;;5055940;28;20335;-69
2023/09/24 05:02:05;;;;;;;1.13;0.90;;;;;;;;;;5055770;28;20029;-69
2023/09/24 05:04:32;;;;;;;4.32;1.13;;;;;;;;;;5055745;28;20074;-69
2023/09/24 05:06:57;;;;;;;2.10;1.10;;;;;;;;;;5055722;28;20017;-69
2023/09/24 05:09:23;;;;;;;2.80;1.20;;;;;;;;;;5055733;28;20024;-69
2023/09/24 05:11:49;;;;;;;6.93;1.30;;;;;;;;;;5037772;28;20055;-69
2023/09/24 05:14:14;;;;;;;3.42;1.70;;;;;;;;;;5055587;28;20052;-69
2023/09/24 05:16:39;;;;;;;2.73;1.47;;;;;;;;;;5055276;28;20053;-69
2023/09/24 05:19:05;;;;;;;2.60;1.27;;;;;;;;;;5055473;28;20274;-69
2023/09/24 05:21:30;;;;;;;3.38;1.10;;;;;;;;;;5055481;28;20013;-68
2023/09/24 05:23:56;;;;;;;1.75;1.05;;;;;;;;;;5053252;28;20025;-69
2023/09/24 05:26:21;;;;;;;1.67;1.10;;;;;;;;;;5054324;28;20021;-69
2023/09/24 05:28:48;;;;;;;3.90;1.52;;;;;;;;;;5036278;28;20381;-69
2023/09/24 05:31:16;;;;;;;4.93;1.25;;;;;;;;;;5046738;28;20504;-69
2023/09/24 05:33:41;;;;;;;2.30;1.17;;;;;;;;;;5034408;28;20064;-69
2023/09/24 05:36:08;;;;;;;2.45;0.88;;;;;;;;;;5033907;28;20465;-69
2023/09/24 05:38:33;;;;;;;1.30;1.00;;;;;;;;;;5034210;28;20370;-69
2023/09/24 05:40:59;;;;;;;2.58;1.40;;;;;;;;;;5034125;28;20075;-69
2023/09/24 05:43:25;;;;;;;2.05;1.15;;;;;;;;;;5034341;28;20021;-69
2023/09/24 05:45:50;;;;;;;3.35;1.00;;;;;;;;;;5034385;28;20258;-69
2023/09/24 05:48:15;;;;;;;1.98;1.23;;;;;;;;;;5033933;28;20044;-69
2023/09/24 05:50:41;;;;;;;1.42;0.90;;;;;;;;;;5033213;28;20018;-68
2023/09/24 05:53:07;;;;;;;3.35;0.98;;;;;;;;;;5034019;28;20028;-68
2023/09/24 05:55:33;;;;;;;2.63;0.90;;;;;;;;;;5034946;28;20020;-68
2023/09/24 05:57:58;;;;;;;1.63;0.80;;;;;;;;;;5034860;28;20025;-68
2023/09/24 06:00:24;;;;;;;1.27;0.90;;;;;;;;;;5034837;28;20488;-68
2023/09/24 06:02:49;;;;;;;3.53;1.33;;;;;;;;;;5034673;28;20025;-68
2023/09/24 06:05:15;;;;;;;4.90;1.02;;;;;;;;;;5044370;28;20476;-68
2023/09/24 06:07:40;;;;;;;3.80;0.93;;;;;;;;;;5054617;28;20009;-68
2023/09/24 06:10:06;;;;;;;1.70;0.95;;;;;;;;;;5054501;28;20416;-68
2023/09/24 06:12:31;;;;;;;1.63;1.20;;;;;;;;;;5053065;28;20021;-68
2023/09/24 06:14:57;;;;;;;1.50;1.00;;;;;;;;;;5034532;28;20116;-68
2023/09/24 06:17:22;;;;;;;1.95;1.20;;;;;;;;;;5034525;28;20100;-68
2023/09/24 06:19:47;;;;;;;2.00;1.10;;;;;;;;;;5037633;28;20021;-68
2023/09/24 06:22:12;;;;;;;1.83;0.73;;;;;;;;;;5034468;28;20033;-68
2023/09/24 06:24:38;;;;;;;1.30;1.05;;;;;;;;;;5034557;28;20243;-68
2023/09/24 06:27:03;;;;;;;2.10;1.20;;;;;;;;;;5034222;28;20037;-67
2023/09/24 06:29:28;;;;;;;2.42;1.30;;;;;;;;;;5034125;28;20286;-68
2023/09/24 06:31:54;;;;;;;3.23;1.00;;;;;;;;;;5034082;28;20520;-67
2023/09/24 06:34:20;;;;;;;1.38;0.98;;;;;;;;;;5034068;28;20612;-68
2023/09/24 06:36:45;;;;;;;3.15;1.38;;;;;;;;;;5034072;28;20526;-68
2023/09/24 06:39:13;;;;;;;6.07;3.10;;;;;;;;;;5034293;28;20017;-68
2023/09/24 06:41:39;;;;;;;4.63;3.22;;;;;;;;;;5034042;28;20295;-67
2023/09/24 06:44:04;;;;;;;5.07;3.38;;;;;;;;;;5035094;28;20493;-67
2023/09/24 06:46:29;;;;;;;4.25;2.85;;;;;;;;;;5039853;28;20094;-68
2023/09/24 06:48:55;;;;;;;5.23;2.87;;;;;;;;;;5038628;28;20044;-68
2023/09/24 06:51:20;;;;;;;8.27;3.22;;;;;;;;;;5032916;28;20021;-67
2023/09/24 06:53:46;;;;;;;7.68;2.97;;;;;;;;;;5033963;28;20030;-68
2023/09/24 06:56:11;;;;;;;9.13;4.05;;;;;;;;;;5033876;28;20017;-68
2023/09/24 06:58:36;;;;;;;10.60;6.95;;;;;;;;;;5016070;28;20029;-67
2023/09/24 07:01:03;;;;;;;13.93;7.47;;;;;;;;;;5033971;28;20026;-67
2023/09/24 07:03:29;;;;;;;15.75;9.15;;;;;;;;;;5040015;28;20024;-68
2023/09/24 07:05:54;;;;;;;13.20;5.35;;;;;;;;;;5052878;28;20380;-68
2023/09/24 07:08:20;;;;;;;10.52;5.97;;;;;;;;;;5051378;28;20025;-67
2023/09/24 07:10:46;;;;;;;13.32;5.10;;;;;;;;;;5052871;28;20020;-67
2023/09/24 07:13:11;;;;;;;6.95;4.15;;;;;;;;;;5045575;28;20037;-67
2023/09/24 07:15:37;;;;;;;8.43;3.60;;;;;;;;;;5033624;28;20055;-68
2023/09/24 07:18:03;;;;;;;7.53;3.70;;;;;;;;;;5033392;28;20345;-67
2023/09/24 07:20:29;;;;;;;9.45;3.80;;;;;;;;;;5033532;28;20033;-73
2023/09/24 07:22:54;;;;;;;11.77;4.60;;;;;;;;;;5037643;28;20380;-73
2023/09/24 07:25:19;;;;;;;12.23;3.93;;;;;;;;;;5046755;28;20021;-73
2023/09/24 07:27:44;;;;;;;6.10;3.30;;;;;;;;;;5041083;28;20618;-73
2023/09/24 07:30:10;;;;;;;7.50;4.28;;;;;;;;;;5032948;28;20014;-75
2023/09/24 07:32:37;;;;;;;10.23;3.47;;;;;;;;;;5032932;28;20045;-74
2023/09/24 07:35:02;;;;;;;9.40;4.25;;;;;;;;;;5033012;28;20021;-75
2023/09/24 07:37:27;;;;;;;7.50;4.18;;;;;;;;;;5033790;28;20409;-75
2023/09/24 07:39:53;;;;;;;6.30;3.13;;;;;;;;;;5019967;28;20465;-75
2023/09/24 07:42:18;;;;;;;7.35;2.83;;;;;;;;;;5034788;28;20635;-76
2023/09/24 07:44:43;;;;;;;6.17;3.40;;;;;;;;;;5051738;28;20036;-70
2023/09/24 07:47:09;;;;;;;5.07;2.60;;;;;;;;;;5051851;28;20339;-70
2023/09/24 07:49:34;;;;;;;10.10;2.97;;;;;;;;;;5043536;28;20258;-69
2023/09/24 07:51:59;;;;;;;8.63;2.95;;;;;;;;;;5052618;28;20107;-70
2023/09/24 07:54:27;;;;;;;7.32;2.40;;;;;;;;;;5052149;28;20103;-66
2023/09/24 07:56:52;;;;;;;10.07;3.42;;;;;;;;;;5052582;28;20013;-66
2023/09/24 07:59:18;;;;;;;11.70;3.67;;;;;;;;;;5036374;28;20488;-66
2023/09/24 08:01:43;;;;;;;11.23;3.70;;;;;;;;;;5043486;28;20028;-66
2023/09/24 08:04:09;;;;;;;9.60;3.42;;;;;;;;;;5052440;28;20025;-66
2023/09/24 08:06:34;;;;;;;5.32;3.10;;;;;;;;;;5052139;28;20020;-66
2023/09/24 08:08:59;;;;;;;5.87;2.80;;;;;;;;;;5033980;28;20428;-66
2023/09/24 08:11:24;;;;;;;6.60;3.17;;;;;;;;;;5050901;28;20473;-66
2023/09/24 08:13:50;;;;;;;11.10;4.03;;;;;;;;;;5053123;28;20246;-66
2023/09/24 08:16:15;;;;;;;14.48;4.90;;;;;;;;;;5056774;28;20277;-66
2023/09/24 08:18:40;;;;;;;26.30;8.85;;;;;;;;;;5054879;28;20025;-66
2023/09/24 08:21:06;;;;;;;14.50;6.43;;;;;;;;;;5055968;28;20028;-66
2023/09/24 08:23:32;;;;;;;14.57;5.53;;;;;;;;;;5055836;28;20028;-66
2023/09/24 08:25:57;;;;;;;10.88;3.47;;;;;;;;;;5055900;28;20017;-66
2023/09/24 08:28:22;;;;;;;14.70;5.73;;;;;;;;;;5054226;28;20017;-67
2023/09/24 08:30:47;;;;;;;11.33;3.70;;;;;;;;;;5055760;28;20254;-66
2023/09/24 08:33:13;;;;;;;9.40;3.20;;;;;;;;;;5041081;28;20050;-66
2023/09/24 08:35:39;;;;;;;5.53;2.88;;;;;;;;;;5036529;28;20258;-66
2023/09/24 08:38:05;;;;;;;8.30;3.03;;;;;;;;;;5048796;28;20036;-66
2023/09/24 08:40:30;;;;;;;6.72;2.85;;;;;;;;;;5055866;28;20033;-66
2023/09/24 08:42:56;;;;;;;9.90;2.75;;;;;;;;;;5036811;28;20025;-66
2023/09/24 08:45:23;;;;;;;8.88;2.78;;;;;;;;;;5036158;28;20029;-66
2023/09/24 08:47:49;;;;;;;5.82;2.28;;;;;;;;;;5049386;28;20028;-66
2023/09/24 08:50:15;;;;;;;4.88;2.40;;;;;;;;;;5055049;28;20183;-66
2023/09/24 08:52:42;;;;;;;6.30;2.60;;;;;;;;;;5055608;28;20087;-66
2023/09/24 08:55:11;;;;;;;10.82;2.75;;;;;;;;;;5055193;28;20041;-66
2023/09/24 08:57:36;;;;;;;11.98;2.15;;;;;;;;;;5041332;28;20025;-66
2023/09/24 09:00:04;;;;;;;4.85;2.00;;;;;;;;;;5055232;28;20031;-66
2023/09/24 09:02:30;;;;;;;8.63;2.13;;;;;;;;;;5055032;28;20083;-66
2023/09/24 09:04:55;;;;;;;8.02;2.30;;;;;;;;;;5055216;28;20024;-70
2023/09/24 09:07:20;;;;;;;5.00;1.90;;;;;;;;;;5053946;28;20032;-70
2023/09/24 09:09:56;;;;;;;9.73;2.30;;;;;;;;;;5054728;28;20085;-70
2023/09/24 09:12:23;;;;;;;5.40;1.92;;;;;;;;;;5048650;28;20030;-70
2023/09/24 09:14:48;;;;;;;7.07;2.00;;;;;;;;;;5035773;28;20112;-70
2023/09/24 09:17:14;;;;;;;5.93;2.10;;;;;;;;;;5048235;28;20071;-70
2023/09/24 09:19:48;;;;;;;6.90;1.70;;;;;;;;;;5054951;28;20016;-70
2023/09/24 09:22:21;;;;;;;3.70;1.70;;;;;;;;;;5054999;28;20499;-70
2023/09/24 09:24:47;;;;;;;3.95;1.65;;;;;;;;;;5054597;28;20024;-70
2023/09/24 09:27:12;;;;;;;8.25;1.60;;;;;;;;;;5053385;28;20029;-70
2023/09/24 09:29:37;;;;;;;6.63;1.80;;;;;;;;;;5054643;28;20024;-70
2023/09/24 09:32:03;;;;;;;6.93;1.80;;;;;;;;;;5054468;28;20056;-70
2023/09/24 09:34:29;;;;;;;6.80;1.35;;;;;;;;;;5054276;28;20024;-70
2023/09/24 09:37:13;;;;;;;4.53;1.50;;;;;;;;;;5040976;28;20438;-70
2023/09/24 09:39:38;;;;;;;3.53;1.23;;;;;;;;;;5036325;28;20052;-70
2023/09/24 09:42:04;;;;;;;4.30;1.60;;;;;;;;;;5035067;28;20053;-70
2023/09/24 09:44:29;;;;;;;4.30;1.48;;;;;;;;;;5035247;28;20048;-70
2023/09/24 09:46:59;;;;;;;5.10;1.50;;;;;;;;;;5047224;28;20029;-70
2023/09/24 09:49:25;;;;;;;6.82;1.55;;;;;;;;;;5054317;28;20025;-70
2023/09/24 09:51:52;;;;;;;5.13;1.67;;;;;;;;;;5054331;28;20424;-70
2023/09/24 09:54:17;;;;;;;1.90;1.23;;;;;;;;;;5054287;28;20052;-71
2023/09/24 09:56:43;;;;;;;3.03;1.20;;;;;;;;;;5042482;28;20048;-70
2023/09/24 09:59:09;;;;;;;4.63;1.43;;;;;;;;;;5035083;28;20022;-71
2023/09/24 10:01:34;;;;;;;5.88;1.05;;;;;;;;;;5035032;28;20025;-70
2023/09/24 10:04:02;;;;;;;4.63;1.33;;;;;;;;;;5034571;28;20437;-70
2023/09/24 10:06:28;;;;;;;6.80;1.30;;;;;;;;;;5047196;28;20029;-70
2023/09/24 10:08:53;;;;;;;5.22;1.35;;;;;;;;;;5054522;28;20104;-70
2023/09/24 10:11:31;;;;;;;3.25;1.10;;;;;;;;;;5054624;28;20457;-70
2023/09/24 10:13:56;;;;;;;2.78;1.13;;;;;;;;;;5054643;28;20392;-66
2023/09/24 10:16:25;;;;;;;3.13;1.23;;;;;;;;;;5042596;28;20032;-66
2023/09/24 10:18:57;;;;;;;4.28;1.35;;;;;;;;;;5035758;28;20466;-66
2023/09/24 10:21:31;;;;;;;5.53;1.30;;;;;;;;;;5034548;28;20025;-66
2023/09/24 10:24:17;;;;;;;9.02;1.55;;;;;;;;;;5034269;28;20025;-66
2023/09/24 10:26:54;;;;;;;2.80;1.08;;;;;;;;;;5015093;28;20067;-66
2023/09/24 10:29:39;;;;;;;4.15;1.60;;;;;;;;;;5034385;28;20393;-65
2023/09/24 10:32:11;;;;;;;4.35;1.30;;;;;;;;;;5033855;28;20103;-66
2023/09/24 10:34:52;;;;;;;4.72;1.30;;;;;;;;;;5034801;28;20036;-66
2023/09/24 10:37:18;;;;;;;4.38;1.33;;;;;;;;;;5052801;28;20108;-65
2023/09/24 10:40:05;;;;;;;4.35;1.55;;;;;;;;;;5053264;28;20025;-66
2023/09/24 10:42:42;;;;;;;5.07;1.60;;;;;;;;;;5053484;28;20373;-65
2023/09/24 10:45:07;;;;;;;5.25;1.50;;;;;;;;;;5048347;28;20104;-66
2023/09/24 10:47:35;;;;;;;4.40;1.40;;;;;;;;;;5034087;28;20052;-66
2023/09/24 10:50:07;;;;;;;2.22;1.23;;;;;;;;;;5045173;28;20270;-66
2023/09/24 10:52:32;;;;;;;;;;;;;;;;;;5053492;28;20112;-66
2023/09/24 10:54:57;;;;;;;5.55;1.40;;;;;;;;;;5051417;28;20003;-66
2023/09/24 10:57:23;;;;;;;6.97;2.03;;;;;;;;;;5053104;28;20116;-66
2023/09/24 10:59:48;;;;;;;3.88;1.50;;;;;;;;;;5052730;28;20119;-66
2023/09/24 11:02:14;;;;;;;4.37;1.70;;;;;;;;;;5033712;28;20029;-65
2023/09/24 11:04:39;;;;;;;4.50;1.80;;;;;;;;;;5038553;28;20024;-65
2023/09/24 11:07:11;;;;;;;6.67;2.07;;;;;;;;;;5053219;28;20099;-66
2023/09/24 11:09:36;;;;;;;2.88;1.48;;;;;;;;;;5052918;28;20555;-65
2023/09/24 11:12:08;;;;;;;3.95;1.50;;;;;;;;;;5052750;28;20028;-65
2023/09/24 11:14:33;;;;;;;4.78;2.00;;;;;;;;;;5051179;28;20353;-66
2023/09/24 11:16:59;;;;;;;4.30;1.48;;;;;;;;;;5052508;28;20040;-66
2023/09/24 11:19:43;;;;;;;3.78;1.70;;;;;;;;;;5051592;28;20025;-79
2023/09/24 11:22:18;;;;;;;4.28;1.52;;;;;;;;;;5028263;28;20044;-68
2023/09/24 11:24:43;;;;;;;3.00;1.55;;;;;;;;;;5033572;28;20474;-65
2023/09/24 11:27:09;;;;;;;3.75;1.67;;;;;;;;;;5045755;28;20032;-65
2023/09/24 11:29:34;;;;;;;3.43;1.37;;;;;;;;;;5052481;28;20024;-65
2023/09/24 11:32:00;;;;;;;3.10;1.73;;;;;;;;;;5049907;28;20303;-65
2023/09/24 11:34:25;;;;;;;7.40;1.92;;;;;;;;;;5037974;28;20048;-65
2023/09/24 11:36:55;;;;;;;6.40;2.03;;;;;;;;;;5040779;28;20053;-65
2023/09/24 11:39:20;;;;;;;5.32;1.80;;;;;;;;;;5040116;28;20555;-66
2023/09/24 11:41:45;;;;;;;2.78;1.42;;;;;;;;;;5026074;28;20021;-65
2023/09/24 11:44:11;;;;;;;4.15;1.60;;;;;;;;;;5032632;28;20024;-65
2023/09/24 11:46:36;;;;;;;4.57;1.57;;;;;;;;;;5032832;28;20076;-65
2023/09/24 11:49:01;;;;;;;4.63;1.60;;;;;;;;;;5033347;28;20478;-65
2023/09/24 11:51:27;;;;;;;3.03;1.73;;;;;;;;;;5036840;28;20013;-65
2023/09/24 11:53:52;;;;;;;2.95;1.45;;;;;;;;;;5036615;28;20017;-65
2023/09/24 11:56:18;;;;;;;3.50;1.40;;;;;;;;;;5036249;28;20112;-65
2023/09/24 11:58:43;;;;;;;4.25;1.58;;;;;;;;;;5037254;28;20025;-65
2023/09/24 12:01:10;;;;;;;4.17;1.57;;;;;;;;;;5036698;28;20047;-65
2023/09/24 12:03:35;;;;;;;4.45;1.52;;;;;;;;;;5036675;28;20270;-65
2023/09/24 12:06:00;;;;;;;3.90;1.65;;;;;;;;;;5036568;28;20024;-65
2023/09/24 12:08:26;;;;;;;4.28;1.50;;;;;;;;;;5036885;28;20498;-65
2023/09/24 12:10:51;;;;;;;4.17;1.30;;;;;;;;;;5036526;28;20465;-65
2023/09/24 12:13:18;;;;;;;3.92;1.70;;;;;;;;;;5036721;28;20028;-65
2023/09/24 12:15:43;;;;;;;4.97;1.52;;;;;;;;;;5036909;28;20033;-65
2023/09/24 12:18:09;;;;;;;9.63;2.33;;;;;;;;;;5036613;28;20389;-65
2023/09/24 12:20:35;;;;;;;5.32;1.20;;;;;;;;;;5036693;28;20057;-65
2023/09/24 12:23:01;;;;;;;3.97;1.45;;;;;;;;;;5036618;28;20120;-65
2023/09/24 12:25:27;;;;;;;4.40;1.70;;;;;;;;;;5035965;28;20026;-65
2023/09/24 12:27:52;;;;;;;4.78;1.85;;;;;;;;;;5036647;28;20049;-65
2023/09/24 12:30:17;;;;;;;3.77;1.60;;;;;;;;;;5036247;28;20026;-65
2023/09/24 12:32:43;;;;;;;5.20;1.75;;;;;;;;;;5036175;28;20374;-65
2023/09/24 12:35:10;;;;;;;3.28;1.33;;;;;;;;;;5036624;28;20477;-66
2023/09/24 12:37:36;;;;;;;6.03;1.70;;;;;;;;;;5036346;28;20033;-66
2023/09/24 12:40:06;;;;;;;7.00;1.75;;;;;;;;;;5035593;28;20496;-66
2023/09/24 12:42:32;;;;;;;4.80;1.55;;;;;;;;;;5035899;28;20029;-66
2023/09/24 12:44:58;;;;;;;3.08;1.40;;;;;;;;;;5035999;28;20029;-67
2023/09/24 12:47:23;;;;;;;4.05;1.65;;;;;;;;;;5036007;28;20034;-66
2023/09/24 12:49:48;;;;;;;3.08;1.42;;;;;;;;;;5035946;28;20034;-67
2023/09/24 12:52:14;;;;;;;3.80;1.87;;;;;;;;;;5035821;28;20033;-66
2023/09/24 12:54:39;;;;;;;11.03;1.80;;;;;;;;;;5035175;28;20025;-66
2023/09/24 12:57:04;;;;;;;5.93;2.05;;;;;;;;;;5035805;28;20350;-67
2023/09/24 12:59:29;;;;;;;4.10;2.08;;;;;;;;;;5035415;28;20026;-67
2023/09/24 13:01:55;;;;;;;3.07;1.67;;;;;;;;;;5035817;28;20079;-66
2023/09/24 13:04:20;;;;;;;7.97;1.90;;;;;;;;;;5035554;28;20750;-66
2023/09/24 13:06:45;;;;;;;4.93;1.57;;;;;;;;;;5035918;28;20259;-66
2023/09/24 13:09:17;;;;;;;3.20;1.37;;;;;;;;;;5035109;28;20258;-66
2023/09/24 13:11:45;;;;;;;4.18;1.20;;;;;;;;;;5036025;28;20619;-66
2023/09/24 13:14:11;;;;;;;3.83;1.70;;;;;;;;;;5035494;28;20033;-66
2023/09/24 13:16:36;;;;;;;6.15;1.67;;;;;;;;;;5035523;28;20496;-67
2023/09/24 13:19:01;;;;;;;5.57;2.00;;;;;;;;;;5035326;28;20021;-67
2023/09/24 13:21:26;;;;;;;4.50;1.50;;;;;;;;;;5035690;28;20029;-67
2023/09/24 13:23:52;;;;;;;4.17;1.50;;;;;;;;;;5034700;28;20025;-66
2023/09/24 13:26:17;;;;;;;4.67;1.40;;;;;;;;;;5035161;28;20567;-67
2023/09/24 13:28:42;;;;;;;5.18;1.85;;;;;;;;;;5035562;28;20018;-66
2023/09/24 13:31:07;;;;;;;3.53;1.48;;;;;;;;;;5035183;28;20461;-66
2023/09/24 13:33:33;;;;;;;4.03;1.50;;;;;;;;;;5034710;28;20055;-66
2023/09/24 13:35:58;;;;;;;3.37;1.40;;;;;;;;;;5035220;28;20017;-67
2023/09/24 13:38:23;;;;;;;3.07;1.20;;;;;;;;;;5034815;28;20028;-66
2023/09/24 13:40:48;;;;;;;3.53;1.50;;;;;;;;;;5034697;28;20091;-66
2023/09/24 13:43:13;;;;;;;3.80;1.30;;;;;;;;;;5034959;28;20068;-65
2023/09/24 13:45:40;;;;;;;2.67;1.40;;;;;;;;;;5035057;28;20071;-65
2023/09/24 13:48:05;;;;;;;6.03;1.40;;;;;;;;;;5035131;28;20112;-66
2023/09/24 13:50:31;;;;;;;3.33;1.45;;;;;;;;;;5034828;28;20109;-65
2023/09/24 13:52:56;;;;;;;3.93;1.57;;;;;;;;;;5035046;28;20048;-65
2023/09/24 13:55:21;;;;;;;3.07;1.53;;;;;;;;;;5034378;28;20076;-65
2023/09/24 13:57:47;;;;;;;3.00;1.20;;;;;;;;;;5034527;28;20262;-65
2023/09/24 14:00:12;;;;;;;2.95;1.52;;;;;;;;;;5034684;28;20025;-65
2023/09/24 14:02:37;;;;;;;3.30;1.10;;;;;;;;;;5034792;28;20087;-74
2023/09/24 14:05:03;;;;;;;2.10;1.30;;;;;;;;;;5034743;28;20088;-65
2023/09/24 14:07:28;;;;;;;3.78;1.30;;;;;;;;;;5034655;28;20465;-65
2023/09/24 14:12:37;;;;;;;2.80;1.20;;;;;;;;;;5033383;28;20033;-66
2023/09/24 14:15:04;;;;;;;4.90;1.47;;;;;;;;;;5034461;28;20013;-66
2023/09/24 14:17:29;;;;;;;2.47;1.33;;;;;;;;;;5034371;28;20262;-66
2023/09/24 14:19:57;;;;;;;6.40;1.70;;;;;;;;;;5034501;28;20024;-65
2023/09/24 14:22:23;;;;;;;5.35;1.63;;;;;;;;;;5034421;28;20485;-65
2023/09/24 14:24:48;;;;;;;4.55;1.13;;;;;;;;;;5033519;28;20025;-65
2023/09/24 14:27:13;;;;;;;3.37;1.30;;;;;;;;;;5034145;28;20108;-65
2023/09/24 14:29:38;;;;;;;2.10;1.17;;;;;;;;;;5034373;28;20469;-66
2023/09/24 14:32:04;;;;;;;2.30;1.10;;;;;;;;;;5033766;28;20775;-66
2023/09/24 14:34:29;;;;;;;2.60;1.27;;;;;;;;;;5034095;28;20112;-66
2023/09/24 14:36:55;;;;;;;3.95;1.30;;;;;;;;;;5033969;28;20025;-66
2023/09/24 14:39:20;;;;;;;4.75;1.65;;;;;;;;;;5033185;28;20025;-66
2023/09/24 14:41:45;;;;;;;3.67;1.60;;;;;;;;;;5033917;28;20047;-66